createdAt,value
2019-05-30T00:01:04.237Z,99.90
2019-05-30T00:03:32.631Z,99.90
2019-05-30T00:06:00.590Z,99.90
2019-05-30T00:08:28.706Z,99.90
2019-05-30T00:10:56.564Z,99.90
2019-05-30T00:13:24.708Z,99.90
2019-05-30T00:15:52.486Z,99.90
2019-05-30T00:18:20.262Z,99.90
2019-05-30T00:20:48.048Z,99.90
2019-05-30T00:23:15.935Z,99.90
2019-05-30T00:25:43.705Z,99.90
2019-05-30T00:28:11.491Z,99.90
2019-05-30T00:30:39.311Z,99.90
2019-05-30T00:33:07.172Z,99.90
2019-05-30T00:35:35.158Z,99.90
2019-05-30T00:38:03.876Z,99.90
2019-05-30T00:40:31.826Z,99.90
2019-05-30T00:43:00.088Z,99.90
2019-05-30T00:45:28.120Z,99.90
2019-05-30T00:47:56.006Z,99.90
2019-05-30T00:50:43.135Z,99.90
2019-05-30T00:53:35.467Z,99.90
2019-05-30T00:56:03.251Z,99.90
2019-05-30T00:58:31.220Z,99.90
2019-05-30T01:00:59.128Z,99.90
2019-05-30T01:03:26.962Z,99.90
2019-05-30T01:05:55.088Z,99.90
2019-05-30T01:08:22.890Z,99.90
2019-05-30T01:10:50.758Z,99.90
2019-05-30T01:13:18.623Z,99.90
2019-05-30T01:15:46.528Z,99.90
2019-05-30T01:18:14.363Z,99.90
2019-05-30T01:20:42.467Z,99.90
2019-05-30T01:23:10.286Z,99.90
2019-05-30T01:25:38.043Z,99.90
2019-05-30T01:28:05.923Z,99.90
2019-05-30T01:30:33.873Z,99.90
2019-05-30T01:33:01.875Z,99.90
2019-05-30T01:35:29.690Z,99.90
2019-05-30T01:37:57.628Z,99.90
2019-05-30T01:40:25.414Z,99.90
2019-05-30T01:42:53.195Z,99.90
2019-05-30T01:45:21.027Z,99.90
2019-05-30T01:47:48.825Z,99.90
2019-05-30T01:50:16.769Z,99.90
2019-05-30T01:52:44.597Z,99.90
2019-05-30T01:55:12.399Z,99.90
2019-05-30T01:57:40.230Z,99.90
2019-05-30T02:00:19.799Z,99.90
2019-05-30T02:02:38.730Z,99.90
2019-05-30T02:05:07.583Z,99.90
2019-05-30T02:07:35.691Z,99.90
2019-05-30T02:10:05.317Z,99.90
2019-05-30T02:12:33.266Z,99.90
2019-05-30T02:15:01.536Z,99.90
2019-05-30T02:17:29.478Z,99.90
2019-05-30T02:19:57.285Z,99.90
2019-05-30T02:22:25.156Z,99.90
2019-05-30T02:24:53.129Z,99.90
2019-05-30T02:27:21.254Z,99.90
2019-05-30T02:29:49.105Z,99.90
2019-05-30T02:32:16.915Z,99.90
2019-05-30T02:34:44.796Z,99.90
2019-05-30T02:37:12.988Z,99.90
2019-05-30T02:39:40.865Z,99.90
2019-05-30T02:42:09.648Z,99.90
2019-05-30T02:44:38.180Z,99.90
2019-05-30T02:47:07.242Z,99.90
2019-05-30T02:49:35.290Z,99.90
2019-05-30T02:52:04.671Z,99.90
2019-05-30T02:54:32.618Z,99.90
2019-05-30T02:57:01.487Z,99.90
2019-05-30T02:59:29.311Z,99.90
2019-05-30T03:02:01.838Z,99.90
2019-05-30T03:04:26.960Z,99.90
2019-05-30T03:06:54.947Z,99.90
2019-05-30T03:09:22.902Z,99.90
2019-05-30T03:11:51.002Z,99.90
2019-05-30T03:14:20.008Z,99.90
2019-05-30T03:16:48.253Z,99.90
2019-05-30T03:19:16.132Z,99.90
2019-05-30T03:21:43.974Z,99.90
2019-05-30T03:24:13.859Z,99.90
2019-05-30T03:26:41.369Z,99.90
2019-05-30T03:29:10.066Z,99.90
2019-05-30T03:31:39.237Z,99.90
2019-05-30T03:34:16.503Z,99.90
2019-05-30T03:36:36.539Z,99.90
2019-05-30T03:39:07.476Z,99.90
2019-05-30T03:41:35.598Z,99.90
2019-05-30T03:44:03.939Z,99.90
2019-05-30T03:46:35.442Z,99.90
2019-05-30T03:49:04.334Z,99.90
2019-05-30T03:51:36.237Z,99.90
2019-05-30T03:54:06.652Z,99.90
2019-05-30T03:56:37.230Z,99.90
2019-05-30T03:59:14.650Z,99.90
2019-05-30T04:01:45.691Z,99.90
2019-05-30T04:04:16.982Z,99.90
2019-05-30T04:06:47.167Z,99.90
2019-05-30T04:09:22.435Z,99.90
2019-05-30T04:11:54.664Z,99.90
2019-05-30T04:14:24.925Z,99.90
2019-05-30T04:16:52.782Z,99.90
2019-05-30T04:19:20.587Z,99.90
2019-05-30T04:21:48.623Z,99.90
2019-05-30T04:24:16.593Z,99.90
2019-05-30T04:26:45.112Z,99.90
2019-05-30T04:29:15.025Z,99.90
2019-05-30T04:31:42.526Z,99.90
2019-05-30T04:34:10.312Z,99.90
2019-05-30T04:36:38.204Z,99.90
2019-05-30T04:39:06.715Z,99.90
2019-05-30T04:41:34.544Z,99.90
2019-05-30T04:44:02.336Z,99.90
2019-05-30T04:46:30.201Z,99.90
2019-05-30T04:48:58.034Z,99.90
2019-05-30T04:51:25.907Z,99.90
2019-05-30T04:53:53.793Z,99.90
2019-05-30T04:56:22.091Z,99.90
2019-05-30T04:58:50.220Z,99.90
2019-05-30T05:01:19.893Z,99.90
2019-05-30T05:03:47.544Z,99.90
2019-05-30T05:06:17.712Z,99.90
2019-05-30T05:08:45.755Z,99.90
2019-05-30T05:11:16.608Z,99.90
2019-05-30T05:13:43.093Z,99.90
2019-05-30T05:16:22.992Z,99.90
2019-05-30T05:18:40.539Z,99.90
2019-05-30T05:21:08.381Z,99.90
2019-05-30T05:23:36.171Z,99.90
2019-05-30T05:26:04.038Z,99.90
2019-05-30T05:28:31.806Z,99.90
2019-05-30T05:30:59.582Z,99.90
2019-05-30T05:33:27.376Z,99.90
2019-05-30T05:35:55.207Z,99.90
2019-05-30T05:38:24.319Z,99.90
2019-05-30T05:40:52.448Z,99.90
2019-05-30T05:43:20.341Z,99.90
2019-05-30T05:45:48.322Z,99.90
2019-05-30T05:48:16.562Z,99.90
2019-05-30T05:50:50.331Z,99.90
2019-05-30T05:53:18.683Z,99.90
2019-05-30T05:55:46.719Z,99.90
2019-05-30T05:58:14.498Z,99.90
2019-05-30T06:00:42.390Z,99.90
2019-05-30T06:03:10.195Z,99.90
2019-05-30T06:05:52.161Z,99.90
2019-05-30T06:08:07.479Z,99.90
2019-05-30T06:10:35.255Z,99.90
2019-05-30T06:13:03.156Z,99.90
2019-05-30T06:15:31.013Z,99.90
2019-05-30T06:17:58.885Z,99.90
2019-05-30T06:20:27.421Z,99.90
2019-05-30T06:22:55.546Z,99.90
2019-05-30T06:25:26.670Z,99.90
2019-05-30T06:27:52.890Z,99.90
2019-05-30T06:30:20.786Z,99.90
2019-05-30T06:32:48.570Z,99.90
2019-05-30T06:35:16.526Z,99.90
2019-05-30T06:37:44.674Z,99.90
2019-05-30T06:40:12.747Z,99.90
2019-05-30T06:42:40.634Z,99.90
2019-05-30T06:45:08.775Z,99.90
2019-05-30T06:47:36.558Z,99.90
2019-05-30T06:50:05.366Z,99.90
2019-05-30T06:52:33.150Z,99.90
2019-05-30T06:55:00.939Z,99.40
2019-05-30T06:57:29.342Z,99.00
2019-05-30T06:59:57.401Z,98.90
2019-05-30T07:02:26.232Z,98.90
2019-05-30T07:04:54.836Z,98.10
2019-05-30T07:07:23.324Z,97.30
2019-05-30T07:09:51.775Z,97.40
2019-05-30T07:12:19.640Z,97.70
2019-05-30T07:14:47.510Z,97.00
2019-05-30T07:17:15.365Z,96.30
2019-05-30T07:19:43.246Z,94.50
2019-05-30T07:22:11.186Z,93.70
2019-05-30T07:24:39.014Z,92.70
2019-05-30T07:27:06.779Z,92.70
2019-05-30T07:29:34.574Z,91.70
2019-05-30T07:32:02.687Z,91.20
2019-05-30T07:34:30.566Z,90.60
2019-05-30T07:36:58.681Z,88.70
2019-05-30T07:39:29.727Z,88.10
2019-05-30T07:42:05.631Z,87.00
2019-05-30T07:44:26.662Z,86.70
2019-05-30T07:46:54.499Z,87.00
2019-05-30T07:49:22.361Z,87.00
2019-05-30T07:51:50.227Z,86.00
2019-05-30T07:54:18.185Z,86.00
2019-05-30T07:56:45.950Z,85.10
2019-05-30T07:59:13.742Z,83.90
2019-05-30T08:01:41.515Z,82.40
2019-05-30T08:04:09.299Z,82.10
2019-05-30T08:06:37.883Z,80.80
2019-05-30T08:09:06.970Z,79.80
2019-05-30T08:11:35.096Z,78.80
2019-05-30T08:14:03.156Z,78.00
2019-05-30T08:16:31.233Z,78.00
2019-05-30T08:19:09.735Z,77.40
2019-05-30T08:21:38.436Z,76.50
2019-05-30T08:24:06.522Z,75.50
2019-05-30T08:26:34.398Z,75.60
2019-05-30T08:29:02.187Z,75.20
2019-05-30T08:31:30.454Z,74.50
2019-05-30T08:33:58.414Z,74.20
2019-05-30T08:36:26.296Z,73.50
2019-05-30T08:38:54.153Z,73.30
2019-05-30T08:41:22.046Z,73.40
2019-05-30T08:43:49.874Z,73.40
2019-05-30T08:46:17.754Z,73.60
2019-05-30T08:48:45.697Z,73.10
2019-05-30T08:51:13.503Z,72.80
2019-05-30T08:53:41.363Z,72.30
2019-05-30T08:56:09.231Z,71.90
2019-05-30T08:58:40.912Z,72.00
2019-05-30T09:01:09.760Z,71.80
2019-05-30T09:03:40.113Z,71.40
2019-05-30T09:06:08.845Z,71.60
2019-05-30T09:08:37.849Z,70.70
2019-05-30T09:11:06.359Z,70.60
2019-05-30T09:13:34.359Z,70.80
2019-05-30T09:16:02.293Z,70.10
2019-05-30T09:18:30.064Z,70.20
2019-05-30T09:20:57.913Z,70.90
2019-05-30T09:23:25.779Z,69.90
2019-05-30T09:25:53.655Z,69.00
2019-05-30T09:28:21.531Z,68.50
2019-05-30T09:30:49.483Z,68.30
2019-05-30T09:33:18.095Z,68.10
2019-05-30T09:38:57.304Z,67.50
2019-05-30T09:41:25.131Z,67.50
2019-05-30T09:43:53.308Z,65.90
2019-05-30T09:46:21.354Z,66.70
2019-05-30T09:48:51.226Z,66.50
2019-05-30T09:51:19.469Z,66.40
2019-05-30T09:53:48.300Z,66.40
2019-05-30T09:56:16.216Z,66.00
2019-05-30T09:58:45.896Z,64.70
2019-05-30T10:01:14.358Z,64.00
2019-05-30T10:03:43.630Z,63.70
2019-05-30T10:06:28.488Z,63.30
2019-05-30T10:08:47.430Z,63.70
2019-05-30T10:11:16.244Z,63.40
2019-05-30T10:13:46.288Z,63.50
2019-05-30T10:16:14.086Z,63.10
2019-05-30T10:18:41.880Z,62.60
